General Aviation Weather

Text Reports

Enter one or more of the following location identifiers separated by a space:

Zip Code, Four-Character ICAO or Three-Character IATA airport codes.

METAR - Aviation Routine Weather Report
KTVR - Vicksburg, Mississippi
Updated at 4:53 PM GMT on January 27, 2015 (10:53 AM CST):
METAR KTVR 271653Z AUTO 36008KT 10SM CLR 17/04 A3016 RMK AO2 SLP219 T01670039
TAF - Terminal Area Forecast
KTVR - Vicksburg, Mississippi
Updated at 4:53 PM GMT on January 27, 2015 (10:53 AM CST):
No TAF is currently available for this location.
Decoded:
No decoded TAF is available.
PIREP - Pilot Weather Report
KTVR - Vicksburg, Mississippi
Updated at 4:53 PM GMT on January 27, 2015 (10:53 AM CST):
No PIREP is currently available for this location.
AIRMET - Airmens Meteorological Information
KTVR - Vicksburg, Mississippi
Updated at 4:53 PM GMT on January 27, 2015 (10:53 AM CST):
No AIRMET is currently available for this location.
SIGMET - Significant Meteorological Information
KTVR - Vicksburg, Mississippi
Updated at 4:53 PM GMT on January 27, 2015 (10:53 AM CST):
No SIGMET is currently available for this location.
NOTAM - Notice to Airmen
KTVR - Vicksburg, Mississippi
Updated at 4:53 PM GMT on January 27, 2015 (10:53 AM CST):
No NOTAM is currently available for this location.
Forecast Area
KTVR - Vicksburg, Mississippi
Updated at 4:53 PM GMT on January 27, 2015 (10:53 AM CST):
No NOTAM is currently available for this location.
Aviation Weather Maps